Time;durP1;ratioP1;P1;durP2;ratioP2;P2;SDS_P1;SDS_P2;PMS_P1;PMS_P2;Temp;Humidity;BMP_temperature;BMP_pressure;BME280_temperature;BME280_humidity;BME280_pressure;Samples;Min_cycle;Max_cycle;Signal;HPM_P1;HPM_P2
2022/04/01 00:00:08;;;;;;;4.85;1.33;;;;;;;14.14;61.17;93466.06;5106139;27;20467;-48
2022/04/01 00:02:38;;;;;;;3.53;0.50;;;;;;;14.20;60.98;93472.00;5106778;27;20451;-47
2022/04/01 00:05:06;;;;;;;2.75;0.28;;;;;;;14.13;61.17;93463.72;5106535;27;20082;-47
2022/04/01 00:07:34;;;;;;;1.40;0.43;;;;;;;14.07;61.40;93433.47;5107473;27;20035;-48
2022/04/01 00:10:02;;;;;;;0.30;0.20;;;;;;;13.95;60.53;93432.09;5108136;27;20043;-47
2022/04/01 00:12:29;;;;;;;4.75;0.45;;;;;;;14.03;59.23;93442.97;5106435;27;20092;-49
2022/04/01 00:14:57;;;;;;;7.72;1.95;;;;;;;13.94;59.27;93427.13;5106793;27;20416;-47
2022/04/01 00:17:24;;;;;;;1.95;0.28;;;;;;;13.84;59.98;93429.91;5106783;27;20035;-48
2022/04/01 00:19:51;;;;;;;1.67;0.40;;;;;;;13.76;59.85;93418.25;5106915;27;20067;-49
2022/04/01 00:22:17;;;;;;;1.58;0.40;;;;;;;13.73;59.56;93408.34;5107032;27;20139;-47
2022/04/01 00:24:46;;;;;;;2.10;0.38;;;;;;;13.70;59.71;93398.44;5085279;28;20077;-51
2022/04/01 00:27:12;;;;;;;3.63;0.55;;;;;;;13.68;59.65;93379.63;5111532;27;20429;-52
2022/04/01 00:29:39;;;;;;;11.15;2.17;;;;;;;13.58;59.99;93376.09;5105570;27;20460;-49
2022/04/01 00:32:06;;;;;;;3.90;0.60;;;;;;;13.56;59.96;93393.16;5106646;27;20078;-47
2022/04/01 00:34:36;;;;;;;5.68;1.20;;;;;;;13.50;60.70;93394.28;5085855;27;20035;-47
2022/04/01 00:37:03;;;;;;;10.73;2.40;;;;;;;13.47;61.23;93385.19;5108860;28;20043;-51
2022/04/01 00:39:31;;;;;;;8.57;2.10;;;;;;;13.44;61.82;93392.81;5106750;27;20043;-46
2022/04/01 00:42:03;;;;;;;7.78;2.05;;;;;;;13.41;62.79;93380.28;5107587;27;20039;-47
2022/04/01 00:44:35;;;;;;;15.80;3.72;;;;;;;13.41;63.17;93383.69;5084792;28;20051;-46
2022/04/01 00:47:06;;;;;;;21.33;2.60;;;;;;;13.45;63.45;93392.53;5106334;28;20523;-48
2022/04/01 00:49:34;;;;;;;33.20;3.65;;;;;;;13.42;63.32;93390.47;5092764;28;20052;-48
2022/04/01 00:52:04;;;;;;;6.30;2.58;;;;;;;13.37;63.48;93401.00;5108440;28;20140;-49
2022/04/01 00:54:31;;;;;;;8.20;1.83;;;;;;;13.39;63.50;93391.03;5085437;28;20113;-50
2022/04/01 00:56:58;;;;;;;12.52;2.42;;;;;;;13.32;63.33;93388.00;5087443;28;20050;-48
2022/04/01 00:59:25;;;;;;;12.10;2.72;;;;;;;13.35;63.86;93398.66;5087444;28;20035;-48
2022/04/01 01:01:52;;;;;;;19.25;3.92;;;;;;;13.38;63.42;93405.19;5087432;28;20047;-49
2022/04/01 01:04:20;;;;;;;12.35;2.45;;;;;;;13.31;64.01;93410.00;5108142;28;20044;-46
2022/04/01 01:06:50;;;;;;;16.67;2.85;;;;;;;13.27;64.31;93398.47;5106905;28;20040;-47
2022/04/01 01:09:18;;;;;;;17.05;2.92;;;;;;;13.23;64.49;93400.13;5111778;28;20039;-51
2022/04/01 01:11:47;;;;;;;16.08;3.88;;;;;;;13.19;64.46;93382.38;5087912;28;20457;-47
2022/04/01 01:14:14;;;;;;;26.73;5.22;;;;;;;13.15;64.30;93394.47;5088124;28;21061;-48
2022/04/01 01:16:44;;;;;;;11.35;2.70;;;;;;;12.91;65.87;93419.84;5107823;28;20102;-48
2022/04/01 01:19:16;;;;;;;17.15;2.42;;;;;;;12.99;65.49;93400.94;5088078;28;20408;-47
2022/04/01 01:21:46;;;;;;;11.80;3.17;;;;;;;12.97;65.93;93408.28;5108816;28;20043;-48
2022/04/01 01:24:17;;;;;;;12.23;3.60;;;;;;;12.95;65.66;93399.94;5107710;28;20584;-51
2022/04/01 01:26:51;;;;;;;21.98;3.72;;;;;;;12.93;65.60;93396.84;5083280;28;20849;-50
2022/04/01 01:29:25;;;;;;;14.32;3.03;;;;;;;12.81;66.02;93421.53;5108333;28;20043;-49
2022/04/01 01:31:56;;;;;;;;;;;;;;;12.82;66.30;93412.63;5107147;28;20491;-47
2022/04/01 01:34:23;;;;;;;10.60;2.28;;;;;;;12.70;66.47;93414.09;5090980;28;20027;-48
2022/04/01 01:36:51;;;;;;;6.28;2.25;;;;;;;12.67;66.73;93419.88;5112455;27;20613;-46
2022/04/01 01:39:19;;;;;;;27.98;2.92;;;;;;;12.65;67.08;93427.97;5111565;27;20134;-48
2022/04/01 01:41:49;;;;;;;18.92;3.83;;;;;;;12.67;66.81;93436.31;5091294;28;20062;-47
2022/04/01 01:44:18;;;;;;;14.25;2.63;;;;;;;12.64;67.00;93426.44;5087968;28;20089;-47
2022/04/01 01:46:45;;;;;;;20.60;3.67;;;;;;;12.47;67.32;93431.31;5089157;27;20050;-46
2022/04/01 01:49:12;;;;;;;5.35;2.17;;;;;;;12.41;67.68;93423.50;5090204;28;20074;-46
2022/04/01 01:57:32;;;;;;;9.15;2.33;;;;;;;12.35;67.83;93408.16;5044976;28;20124;-47
2022/04/01 02:00:10;;;;;;;14.23;3.72;;;;;;;12.28;68.01;93412.94;5027964;28;20079;-50
2022/04/01 02:02:38;;;;;;;19.00;3.70;;;;;;;12.21;68.90;93428.94;5087105;27;20086;-49
2022/04/01 02:05:08;;;;;;;7.40;2.35;;;;;;;12.20;68.92;93406.47;5089817;27;22408;-48
2022/04/01 02:07:36;;;;;;;13.13;3.45;;;;;;;12.02;69.80;93410.56;5089367;27;20135;-49
2022/04/01 02:10:04;;;;;;;16.27;2.83;;;;;;;12.02;70.34;93416.53;5090447;27;20047;-50
2022/04/01 02:12:30;;;;;;;10.82;2.65;;;;;;;12.03;70.11;93386.78;5109398;27;20049;-47
2022/04/01 02:14:59;;;;;;;7.00;2.63;;;;;;;11.99;70.39;93391.03;5094019;27;20745;-49
2022/04/01 02:17:25;;;;;;;18.17;3.20;;;;;;;11.91;70.65;93404.63;5090007;27;20089;-48
2022/04/01 02:19:52;;;;;;;16.15;3.10;;;;;;;11.86;71.26;93391.59;5095993;27;20797;-48
2022/04/01 02:22:20;;;;;;;20.77;4.60;;;;;;;11.84;71.37;93378.84;5087645;27;20051;-47
2022/04/01 02:24:50;;;;;;;15.02;3.28;;;;;;;11.86;71.60;93370.72;5108262;27;20045;-48
2022/04/01 02:27:17;;;;;;;26.08;3.88;;;;;;;12.03;71.00;93360.69;5087008;27;20078;-49
2022/04/01 02:29:45;;;;;;;26.33;3.35;;;;;;;12.14;70.92;93358.00;5090272;27;20047;-49
2022/04/01 02:32:17;;;;;;;20.25;5.95;;;;;;;12.24;70.49;93376.16;5109208;27;20123;-46
2022/04/01 02:35:04;;;;;;;28.15;5.68;;;;;;;12.25;70.25;93351.63;5109621;27;20062;-47
2022/04/01 02:37:34;;;;;;;26.95;6.88;;;;;;;12.34;68.97;93357.78;5089317;28;20047;-47
2022/04/01 02:40:04;;;;;;;38.70;7.22;;;;;;;12.41;69.45;93350.41;5088393;28;20051;-51
2022/04/01 02:42:31;;;;;;;21.02;6.80;;;;;;;12.46;69.07;93351.41;5093577;27;20039;-46
2022/04/01 02:44:58;;;;;;;25.67;4.82;;;;;;;12.45;69.27;93339.41;5086804;28;20486;-52
2022/04/01 02:47:25;;;;;;;40.35;6.25;;;;;;;12.42;69.47;93325.84;5091792;28;20036;-47
2022/04/01 02:49:52;;;;;;;36.85;5.18;;;;;;;12.50;68.97;93347.19;5089939;28;20040;-50
2022/04/01 02:52:19;;;;;;;31.88;5.03;;;;;;;12.46;68.79;93340.94;5107738;27;20054;-48
2022/04/01 02:54:47;;;;;;;27.58;5.95;;;;;;;12.55;68.24;93334.06;5090883;28;20043;-49
2022/04/01 02:57:14;;;;;;;32.63;6.18;;;;;;;12.62;68.01;93339.72;5088122;28;20043;-53
2022/04/01 02:59:42;;;;;;;31.05;5.30;;;;;;;12.65;68.02;93339.16;5085937;28;20265;-47
2022/04/01 03:02:09;;;;;;;18.65;5.78;;;;;;;12.67;67.83;93344.13;5089677;28;20036;-49
2022/04/01 03:04:36;;;;;;;39.65;6.38;;;;;;;12.74;67.02;93326.25;5107256;27;20062;-46
2022/04/01 03:07:04;;;;;;;20.75;4.78;;;;;;;12.89;66.16;93325.28;5107616;27;20116;-48
2022/04/01 03:09:33;;;;;;;38.40;9.60;;;;;;;12.87;66.76;93345.69;5095533;28;20405;-47
2022/04/01 03:12:18;;;;;;;30.02;6.15;;;;;;;12.81;66.65;93317.00;5088364;27;20055;-46
2022/04/01 03:14:48;;;;;;;23.42;4.70;;;;;;;12.76;66.53;93319.69;5107131;27;20750;-50
2022/04/01 03:17:34;;;;;;;33.80;5.97;;;;;;;12.76;66.70;93317.06;5107795;27;20057;-50
2022/04/01 03:20:13;;;;;;;29.40;4.90;;;;;;;12.79;66.42;93303.47;5088004;27;20132;-48
2022/04/01 03:22:43;;;;;;;21.63;4.00;;;;;;;12.86;66.09;93297.13;5097844;28;20397;-48
2022/04/01 03:25:16;;;;;;;31.60;5.30;;;;;;;13.01;65.20;93289.06;5086787;28;20588;-46
2022/04/01 03:28:04;;;;;;;35.97;7.47;;;;;;;13.13;63.74;93286.03;5105734;27;20801;-48
2022/04/01 03:30:31;;;;;;;28.13;5.05;;;;;;;13.25;63.29;93293.41;5088390;27;20104;-52
2022/04/01 03:32:58;;;;;;;28.23;5.97;;;;;;;13.27;63.54;93297.31;5087868;27;20747;-50
2022/04/01 03:35:24;;;;;;;29.15;7.32;;;;;;;13.23;63.04;93295.53;5089259;27;20051;-46
2022/04/01 03:37:51;;;;;;;37.47;5.93;;;;;;;13.32;63.22;93293.88;5087358;27;20040;-46
2022/04/01 03:40:19;;;;;;;19.65;6.45;;;;;;;13.26;63.45;93305.44;5108159;27;20067;-47
2022/04/01 03:42:51;;;;;;;19.85;4.53;;;;;;;13.24;63.47;93286.66;5086301;27;20147;-47
2022/04/01 03:45:18;;;;;;;40.15;7.20;;;;;;;13.19;63.60;93290.88;5087705;27;20043;-47
2022/04/01 03:48:09;;;;;;;30.10;7.25;;;;;;;13.00;64.21;93297.97;5088039;28;20051;-48
2022/04/01 03:50:39;;;;;;;39.17;6.32;;;;;;;12.91;65.06;93297.03;5090709;28;20062;-51
2022/04/01 03:53:08;;;;;;;25.33;5.22;;;;;;;12.69;65.61;93279.31;5085739;28;20050;-49
2022/04/01 03:55:38;;;;;;;19.40;4.68;;;;;;;12.54;66.46;93282.91;5086402;28;20047;-47
2022/04/01 03:58:29;;;;;;;28.38;6.25;;;;;;;12.41;67.28;93261.63;5104046;27;20078;-53
2022/04/01 04:01:14;;;;;;;23.85;6.82;;;;;;;12.33;67.77;93249.19;5105339;27;20051;-51
2022/04/01 04:03:48;;;;;;;21.45;4.68;;;;;;;12.29;67.65;93258.66;5087725;28;20505;-50
2022/04/01 04:06:16;;;;;;;35.92;5.63;;;;;;;12.45;65.65;93245.41;5085529;28;20032;-49
2022/04/01 04:08:45;;;;;;;38.95;6.05;;;;;;;12.74;65.31;93264.34;5084883;28;20130;-47
2022/04/01 04:11:12;;;;;;;31.27;6.43;;;;;;;12.73;65.41;93236.69;5086127;28;20069;-51
2022/04/01 04:13:47;;;;;;;;;;;;;;;12.61;65.99;93254.59;5092774;27;20532;-49
2022/04/01 04:16:23;;;;;;;36.20;6.13;;;;;;;12.58;65.62;93236.88;5085548;28;19965;-49
2022/04/01 04:19:03;;;;;;;39.35;7.85;;;;;;;12.65;65.02;93239.91;5088155;27;20770;-49
2022/04/01 04:21:41;;;;;;;33.05;6.82;;;;;;;12.79;65.04;93263.50;5094598;28;20132;-49
2022/04/01 04:24:18;;;;;;;23.17;6.05;;;;;;;12.88;64.71;93305.44;5084728;28;20047;-47
2022/04/01 04:26:50;;;;;;;25.33;5.40;;;;;;;13.23;62.51;93279.84;5087872;28;20048;-52
2022/04/01 04:29:20;;;;;;;21.60;4.45;;;;;;;13.37;60.80;93271.03;5091109;28;20054;-51
2022/04/01 04:32:13;;;;;;;35.90;6.45;;;;;;;13.64;59.44;93266.16;5107374;27;20413;-47
2022/04/01 04:34:46;;;;;;;34.03;6.03;;;;;;;13.68;59.74;93280.22;5089425;27;20058;-49
2022/04/01 04:37:22;;;;;;;27.48;4.28;;;;;;;13.64;60.81;93247.84;5092342;28;20099;-48
2022/04/01 04:39:50;;;;;;;44.92;6.93;;;;;;;13.44;62.64;93262.81;5091802;28;20139;-48
2022/04/01 04:42:18;;;;;;;44.58;7.43;;;;;;;13.76;58.13;93272.47;5091902;27;20068;-47
2022/04/01 04:44:45;;;;;;;54.28;9.80;;;;;;;14.00;56.45;93291.72;5089866;28;20044;-46
2022/04/01 04:47:25;;;;;;;42.60;7.20;;;;;;;14.20;55.60;93273.00;5089691;28;20071;-49
2022/04/01 04:49:55;;;;;;;36.47;7.13;;;;;;;14.30;55.12;93285.91;5109889;28;20467;-48
2022/04/01 04:52:29;;;;;;;54.53;8.70;;;;;;;14.39;55.65;93277.38;5086227;28;20047;-48
2022/04/01 04:55:00;;;;;;;22.05;5.00;;;;;;;14.24;58.08;93266.13;5086004;28;20047;-47
2022/04/01 04:57:38;;;;;;;40.75;7.25;;;;;;;14.12;58.83;93265.84;5105609;28;20034;-48
2022/04/01 05:00:06;;;;;;;61.30;6.90;;;;;;;13.87;59.08;93225.97;5084901;28;20047;-46
2022/04/01 05:03:23;;;;;;;73.07;19.23;;;;;;;14.62;51.76;93260.69;5090736;28;20044;-50
2022/04/01 05:05:56;;;;;;;35.55;6.20;;;;;;;14.75;55.31;93268.81;5086205;28;20051;-49
2022/04/01 05:09:06;;;;;;;29.92;5.55;;;;;;;14.47;58.18;93289.78;5107905;27;20136;-49
2022/04/01 05:12:07;;;;;;;42.13;6.70;;;;;;;14.21;58.85;93261.47;5087569;28;20493;-51
2022/04/01 05:15:04;;;;;;;32.55;6.78;;;;;;;14.05;60.12;93286.38;5091646;28;20783;-49
2022/04/01 05:17:38;;;;;;;26.58;4.70;;;;;;;14.06;61.01;93274.84;5091852;28;20155;-50
2022/04/01 05:20:16;;;;;;;26.85;5.57;;;;;;;13.92;62.07;93275.63;5109818;27;20051;-45
2022/04/01 05:23:00;;;;;;;29.15;5.95;;;;;;;13.86;62.65;93268.91;5091319;27;20409;-48
2022/04/01 05:25:35;;;;;;;26.60;4.85;;;;;;;13.80;62.96;93256.22;5090641;27;20139;-52
2022/04/01 05:28:20;;;;;;;30.15;4.30;;;;;;;13.80;63.83;93256.97;5089542;27;20052;-49
2022/04/01 05:31:20;;;;;;;42.58;7.90;;;;;;;13.81;64.01;93227.16;5086991;28;20070;-47
2022/04/01 05:33:57;;;;;;;28.70;5.88;;;;;;;13.74;64.26;93240.59;5099582;27;20112;-51
2022/04/01 05:36:28;;;;;;;29.25;8.45;;;;;;;13.79;64.57;93252.81;5086786;28;20052;-47
2022/04/01 05:38:57;;;;;;;31.75;7.00;;;;;;;13.91;64.07;93236.63;5085262;28;20493;-49
2022/04/01 05:41:25;;;;;;;23.67;4.47;;;;;;;14.04;63.85;93263.88;5094346;27;22073;-49
2022/04/01 05:43:52;;;;;;;40.58;6.10;;;;;;;14.09;63.13;93258.56;5108798;27;20042;-50
2022/04/01 05:46:26;;;;;;;37.22;6.95;;;;;;;14.18;63.41;93230.63;5086683;28;20134;-50
2022/04/01 05:49:00;;;;;;;32.03;4.82;;;;;;;14.28;63.10;93251.38;5088834;28;20043;-51
2022/04/01 05:51:30;;;;;;;59.38;5.90;;;;;;;14.43;62.43;93262.63;5081889;28;20130;-50
2022/04/01 05:53:58;;;;;;;32.90;5.82;;;;;;;14.48;61.11;93259.91;5093042;28;20109;-47
2022/04/01 05:56:27;;;;;;;34.63;5.55;;;;;;;14.67;60.85;93284.16;5091345;28;20044;-48
2022/04/01 05:58:55;;;;;;;21.38;6.80;;;;;;;14.77;60.27;93282.41;5088373;28;20058;-47
2022/04/01 06:01:25;;;;;;;27.48;5.75;;;;;;;14.69;61.03;93232.25;5104702;27;20050;-47
2022/04/01 06:04:12;;;;;;;26.83;5.57;;;;;;;14.73;60.59;93292.69;5085624;27;20051;-45
2022/04/01 06:06:44;;;;;;;41.95;5.57;;;;;;;14.92;59.64;93279.44;5085956;27;20500;-50
2022/04/01 06:09:40;;;;;;;32.28;5.65;;;;;;;15.03;60.52;93259.78;5087789;27;20463;-51
2022/04/01 06:12:29;;;;;;;41.92;6.55;;;;;;;15.24;58.93;93204.28;5103369;27;20104;-51
2022/04/01 06:15:51;;;;;;;29.95;7.53;;;;;;;15.41;57.62;93233.25;5102729;27;20051;-47
2022/04/01 06:18:55;;;;;;;34.95;6.68;;;;;;;15.53;57.31;93245.03;5047900;28;20581;-46
2022/04/01 06:21:24;;;;;;;41.50;6.25;;;;;;;15.71;57.41;93230.91;5088938;27;20134;-51
2022/04/01 06:24:01;;;;;;;44.80;6.90;;;;;;;15.88;56.99;93245.22;5089059;27;20065;-49
2022/04/01 06:26:31;;;;;;;33.47;7.30;;;;;;;16.08;55.59;93264.91;5080542;28;20048;-49
2022/04/01 06:29:09;;;;;;;35.47;6.03;;;;;;;16.22;55.47;93229.59;5077864;28;20182;-49
2022/04/01 06:31:44;;;;;;;36.55;6.90;;;;;;;16.40;55.11;93234.88;5074588;28;20109;-48
2022/04/01 06:34:17;;;;;;;34.70;7.90;;;;;;;16.58;53.45;93257.53;5080346;28;20048;-51
2022/04/01 06:37:14;;;;;;;37.13;7.45;;;;;;;16.76;52.60;93255.69;5067441;28;20143;-48
2022/04/01 06:39:53;;;;;;;37.33;7.22;;;;;;;16.90;52.83;93237.16;5068465;28;20059;-47
2022/04/01 06:42:31;;;;;;;31.75;5.43;;;;;;;17.05;51.41;93253.56;5067050;28;20123;-50
2022/04/01 06:45:27;;;;;;;42.00;5.57;;;;;;;17.14;51.11;93263.00;5000163;28;20400;-50
2022/04/01 06:48:12;;;;;;;28.45;8.40;;;;;;;17.27;51.21;93240.25;5069741;28;20133;-47
2022/04/01 06:50:58;;;;;;;35.70;5.72;;;;;;;17.49;50.79;93241.16;5064585;28;20055;-48
2022/04/01 06:53:43;;;;;;;34.65;7.70;;;;;;;17.68;49.13;93227.63;5066466;28;20043;-52
2022/04/01 06:56:30;;;;;;;41.33;6.53;;;;;;;17.74;48.99;93234.28;5067529;28;20041;-51
2022/04/01 06:58:58;;;;;;;22.23;5.50;;;;;;;17.83;48.60;93239.53;5064830;28;20478;-48
2022/04/01 07:01:25;;;;;;;32.10;5.70;;;;;;;18.00;47.75;93244.75;5064520;28;20055;-47
2022/04/01 07:03:53;;;;;;;42.65;6.75;;;;;;;18.20;47.13;93255.69;5069408;28;20518;-49
2022/04/01 07:06:20;;;;;;;33.78;10.35;;;;;;;18.40;46.34;93262.88;5071448;28;20048;-49
2022/04/01 07:08:48;;;;;;;32.03;7.82;;;;;;;18.61;45.51;93264.78;5069384;28;20097;-49
2022/04/01 07:11:15;;;;;;;38.53;8.60;;;;;;;18.81;44.57;93265.91;5069620;28;20106;-47
2022/04/01 07:13:42;;;;;;;38.80;13.95;;;;;;;18.94;44.42;93243.78;5070727;28;20132;-50
2022/04/01 07:16:12;;;;;;;25.35;6.15;;;;;;;19.20;43.53;93251.53;5067773;28;20128;-49
2022/04/01 07:18:39;;;;;;;48.35;6.43;;;;;;;19.41;43.31;93256.00;5071717;28;20052;-48
2022/04/01 07:21:08;;;;;;;44.63;6.70;;;;;;;19.56;43.19;93258.03;5071071;28;20044;-49
2022/04/01 07:23:36;;;;;;;47.15;7.40;;;;;;;19.69;43.16;93245.66;5068869;28;20040;-47
2022/04/01 07:26:04;;;;;;;33.03;7.00;;;;;;;19.89;42.32;93254.63;5070393;27;20678;-50
2022/04/01 07:28:32;;;;;;;41.83;7.97;;;;;;;20.01;40.85;93262.59;5100416;27;20041;-50
2022/04/01 07:34:21;;;;;;;36.58;6.38;;;;;;;20.16;39.99;93257.75;5102468;27;20469;-49
2022/04/01 07:36:50;;;;;;;45.20;8.10;;;;;;;20.09;40.40;93254.88;5104996;27;20546;-47
2022/04/01 07:39:16;;;;;;;41.67;7.78;;;;;;;20.23;40.24;93252.69;5107345;27;20093;-45
2022/04/01 07:41:43;;;;;;;52.55;10.95;;;;;;;20.39;39.40;93258.88;5107020;27;20039;-51
2022/04/01 07:44:10;;;;;;;55.60;8.50;;;;;;;20.53;38.49;93260.44;5106672;27;20063;-49
2022/04/01 07:46:37;;;;;;;27.38;7.05;;;;;;;20.49;38.57;93264.81;5105368;27;20474;-46
2022/04/01 07:49:04;;;;;;;35.92;7.60;;;;;;;20.43;38.34;93257.09;5101916;27;20043;-52
2022/04/01 07:51:31;;;;;;;47.22;10.30;;;;;;;20.38;37.83;93262.63;5104916;27;20085;-47
2022/04/01 07:53:58;;;;;;;52.88;10.30;;;;;;;20.31;37.52;93259.75;5105271;27;20093;-47
2022/04/01 07:56:30;;;;;;;47.80;7.18;;;;;;;20.23;37.01;93260.63;5100190;27;20542;-49
2022/04/01 07:58:58;;;;;;;68.72;11.75;;;;;;;20.31;38.13;93265.06;5103942;27;20073;-47
2022/04/01 08:01:29;;;;;;;37.10;8.55;;;;;;;20.35;38.36;93265.94;5101699;27;20760;-47
2022/04/01 08:03:56;;;;;;;39.88;9.32;;;;;;;20.50;38.27;93251.25;5098213;27;20111;-49
2022/04/01 08:06:22;;;;;;;37.72;6.00;;;;;;;20.62;38.20;93263.75;5098605;27;20047;-48
2022/04/01 08:08:49;;;;;;;31.13;6.53;;;;;;;20.74;38.22;93262.94;5098866;27;20027;-46
2022/04/01 08:11:16;;;;;;;39.13;6.97;;;;;;;20.81;36.91;93271.88;5094896;27;20051;-50
2022/04/01 08:13:43;;;;;;;43.72;7.68;;;;;;;20.77;36.15;93272.88;5110862;27;20046;-46
2022/04/01 08:16:11;;;;;;;24.42;7.18;;;;;;;20.86;36.13;93272.75;5107849;27;20043;-49
2022/04/01 08:18:38;;;;;;;51.22;8.18;;;;;;;20.83;36.39;93279.47;5107241;27;20044;-49
2022/04/01 08:21:05;;;;;;;51.63;7.90;;;;;;;20.80;36.12;93269.56;5105244;27;21997;-48
2022/04/01 08:23:35;;;;;;;35.13;6.32;;;;;;;20.75;36.75;93261.84;5105621;27;20040;-50
2022/04/01 08:26:02;;;;;;;45.90;6.93;;;;;;;20.74;36.06;93261.09;5103628;27;20489;-52
2022/04/01 08:28:30;;;;;;;28.20;4.88;;;;;;;20.67;35.85;93265.38;5106329;27;20062;-48
2022/04/01 08:30:57;;;;;;;50.50;7.57;;;;;;;20.52;36.91;93269.44;5106698;27;20438;-51
2022/04/01 08:33:24;;;;;;;85.05;22.67;;;;;;;20.42;36.89;93260.09;5105425;27;20043;-53
2022/04/01 08:35:51;;;;;;;276.73;125.40;;;;;;;20.29;36.99;93272.50;5103451;27;20039;-49
2022/04/01 08:38:18;;;;;;;239.02;105.88;;;;;;;20.19;37.32;93267.69;5106413;27;20036;-49
2022/04/01 08:40:45;;;;;;;171.15;81.15;;;;;;;20.08;37.64;93261.25;5106201;28;20112;-47
2022/04/01 08:43:12;;;;;;;99.45;42.80;;;;;;;20.05;37.90;93274.03;5104932;27;20039;-48
2022/04/01 08:45:40;;;;;;;44.55;10.13;;;;;;;20.03;38.19;93265.66;5107862;27;20047;-51
2022/04/01 08:48:10;;;;;;;33.42;8.48;;;;;;;19.97;38.15;93267.00;5107023;28;20050;-49
2022/04/01 08:50:41;;;;;;;36.42;8.88;;;;;;;19.61;39.20;93260.47;5101557;28;20051;-48
2022/04/01 08:53:07;;;;;;;43.42;6.85;;;;;;;19.34;40.44;93271.59;5105530;28;20069;-49
2022/04/01 08:55:34;;;;;;;45.00;8.65;;;;;;;19.00;41.11;93260.22;5105319;28;20558;-52
2022/04/01 08:58:01;;;;;;;42.20;7.57;;;;;;;18.89;40.50;93252.69;5105105;28;20039;-51
2022/04/01 09:00:29;;;;;;;48.95;9.05;;;;;;;18.89;41.64;93234.22;5102006;28;20523;-51
2022/04/01 09:03:01;;;;;;;24.98;6.13;;;;;;;18.77;41.68;93234.13;5105829;28;20051;-47
2022/04/01 09:05:28;;;;;;;46.63;6.82;;;;;;;18.68;42.82;93236.06;5103285;28;20104;-49
2022/04/01 09:08:03;;;;;;;43.70;7.90;;;;;;;18.62;42.71;93224.13;5086847;28;20032;-52
2022/04/01 09:10:31;;;;;;;26.33;6.60;;;;;;;18.62;41.36;93230.19;5104516;28;20048;-46
2022/04/01 09:12:58;;;;;;;40.97;8.18;;;;;;;18.53;41.55;93251.34;5104380;28;20047;-52
2022/04/01 09:15:42;;;;;;;47.65;8.93;;;;;;;18.60;41.30;93245.56;5106740;28;20091;-48
2022/04/01 09:18:09;;;;;;;43.35;8.52;;;;;;;18.66;39.27;93235.59;5106474;28;20443;-52
2022/04/01 09:20:50;;;;;;;25.73;5.70;;;;;;;18.61;39.10;93247.09;5106382;28;20120;-49
2022/04/01 09:23:22;;;;;;;27.50;7.32;;;;;;;18.53;39.12;93248.69;5105771;28;20043;-49
2022/04/01 09:25:53;;;;;;;23.33;5.03;;;;;;;18.43;38.45;93224.56;5105361;28;20051;-47
2022/04/01 09:28:30;;;;;;;50.45;6.30;;;;;;;18.46;38.70;93224.69;5105322;28;20047;-48
2022/04/01 09:31:18;;;;;;;27.23;5.47;;;;;;;18.46;38.08;93229.97;5105362;28;20044;-46
2022/04/01 09:34:09;;;;;;;34.50;6.97;;;;;;;18.59;38.22;93216.88;5105059;28;20105;-47
2022/04/01 09:36:38;;;;;;;33.80;6.75;;;;;;;18.51;38.32;93224.53;5105152;28;20138;-49
2022/04/01 09:39:09;;;;;;;27.73;5.97;;;;;;;18.59;37.82;93238.72;5105980;28;20047;-46
2022/04/01 09:41:35;;;;;;;39.90;6.07;;;;;;;18.71;37.60;93230.16;5105485;28;20035;-46
2022/04/01 09:44:28;;;;;;;33.63;6.25;;;;;;;18.76;38.48;93218.63;5102045;28;20527;-48
2022/04/01 09:47:00;;;;;;;35.80;6.53;;;;;;;18.78;37.46;93227.78;5105082;28;20051;-46
2022/04/01 09:49:39;;;;;;;39.10;5.13;;;;;;;18.88;36.79;93230.03;5106225;28;20093;-48
2022/04/01 09:52:12;;;;;;;34.90;4.93;;;;;;;18.92;36.66;93219.59;5102664;28;20041;-50
2022/04/01 09:55:00;;;;;;;36.78;6.80;;;;;;;19.06;36.84;93224.63;5089888;28;20497;-47
2022/04/01 09:57:28;;;;;;;37.83;4.72;;;;;;;19.05;36.58;93225.72;5091192;27;20054;-50
2022/04/01 09:59:55;;;;;;;25.27;6.97;;;;;;;19.06;36.80;93219.34;5102916;27;20051;-50
2022/04/01 10:02:22;;;;;;;28.90;5.53;;;;;;;19.15;36.61;93214.78;5106024;27;20052;-48
2022/04/01 10:04:49;;;;;;;33.67;5.80;;;;;;;19.21;36.60;93226.69;5105391;27;20050;-49
2022/04/01 10:07:17;;;;;;;41.60;6.95;;;;;;;19.06;37.27;93219.34;5107073;27;20036;-53
2022/04/01 10:09:48;;;;;;;39.53;7.47;;;;;;;19.06;37.30;93209.56;5100319;27;20039;-49
2022/04/01 10:12:36;;;;;;;29.02;5.10;;;;;;;19.04;37.24;93216.28;5098811;27;20401;-50
2022/04/01 10:15:07;;;;;;;32.83;6.00;;;;;;;19.11;37.64;93211.25;5103205;27;20046;-47
2022/04/01 10:17:54;;;;;;;31.42;5.90;;;;;;;19.14;36.75;93209.81;5102252;27;20491;-49
2022/04/01 10:20:24;;;;;;;23.88;5.82;;;;;;;19.26;36.94;93202.72;5102510;27;20032;-51
2022/04/01 10:22:52;;;;;;;19.30;4.28;;;;;;;19.24;37.32;93219.97;5105984;27;20063;-51
2022/04/01 10:25:36;;;;;;;30.55;5.80;;;;;;;19.13;36.51;93198.50;5107163;27;20044;-49
2022/04/01 10:28:04;;;;;;;;;;;;;;;19.29;36.63;93202.06;5100893;27;20097;-50
2022/04/01 10:30:32;;;;;;;45.25;10.35;;;;;;;19.12;36.58;93201.47;5105115;27;19924;-48
2022/04/01 10:33:03;;;;;;;41.45;7.70;;;;;;;19.14;36.35;93205.34;5104877;27;20116;-49
2022/04/01 10:35:33;;;;;;;46.60;6.68;;;;;;;19.24;36.68;93189.06;5106096;27;20043;-52
2022/04/01 10:38:06;;;;;;;39.22;4.50;;;;;;;19.35;35.78;93200.00;5108660;27;20051;-49
2022/04/01 10:40:37;;;;;;;32.13;5.65;;;;;;;19.32;35.94;93194.59;5109060;27;20534;-50
2022/04/01 10:43:11;;;;;;;17.15;4.20;;;;;;;19.32;35.89;93186.69;5108087;27;21001;-48
2022/04/01 10:45:40;;;;;;;33.72;4.95;;;;;;;19.42;35.67;93199.47;5108651;27;20047;-53
2022/04/01 10:51:37;;;;;;;35.58;4.53;;;;;;;19.55;34.98;93182.56;5108207;27;20572;-52
2022/04/01 10:54:12;;;;;;;43.10;6.07;;;;;;;19.64;35.25;93191.19;5105432;27;20048;-48
2022/04/01 10:56:55;;;;;;;31.55;4.82;;;;;;;19.71;35.17;93189.84;5106326;27;20047;-48
2022/04/01 10:59:24;;;;;;;35.97;5.57;;;;;;;19.71;34.70;93179.28;5106033;27;20060;-46
2022/04/01 11:01:53;;;;;;;31.23;6.40;;;;;;;19.97;34.51;93177.16;5107348;27;20043;-51
2022/04/01 11:04:20;;;;;;;32.53;4.07;;;;;;;20.22;34.22;93171.84;5104410;27;20051;-50
2022/04/01 11:06:51;;;;;;;31.08;5.53;;;;;;;20.25;34.25;93174.59;5105733;27;20059;-46
2022/04/01 11:09:50;;;;;;;48.25;6.47;;;;;;;19.91;33.44;93151.28;5104569;27;20794;-50
2022/04/01 11:12:21;;;;;;;37.83;6.40;;;;;;;19.95;33.29;93158.22;5101733;27;20035;-54
2022/04/01 11:14:58;;;;;;;32.67;6.22;;;;;;;20.11;33.13;93150.38;5105837;27;20050;-48
2022/04/01 11:17:34;;;;;;;28.05;6.78;;;;;;;20.37;33.10;93157.97;5105958;27;20043;-51
2022/04/01 11:20:09;;;;;;;26.70;3.95;;;;;;;20.55;33.64;93158.47;5106200;27;20464;-48
2022/04/01 11:22:44;;;;;;;26.40;4.75;;;;;;;20.87;33.73;93144.63;5107233;27;20043;-48
2022/04/01 11:25:13;;;;;;;38.38;6.93;;;;;;;20.86;32.99;93148.41;5105550;27;20093;-50
2022/04/01 11:27:48;;;;;;;23.65;4.63;;;;;;;20.70;32.91;93127.94;5107366;27;20051;-51
2022/04/01 11:30:17;;;;;;;45.08;6.00;;;;;;;20.57;31.90;93129.81;5106087;27;20108;-49
2022/04/01 11:32:52;;;;;;;20.80;3.63;;;;;;;20.57;31.47;93107.91;5105608;27;20485;-47
2022/04/01 11:35:24;;;;;;;30.23;7.53;;;;;;;20.51;31.48;93109.22;5109509;27;20039;-49
2022/04/01 11:37:52;;;;;;;27.73;5.45;;;;;;;20.51;32.32;93114.50;5107052;27;20051;-46
2022/04/01 11:40:27;;;;;;;30.92;4.22;;;;;;;20.57;32.69;93123.78;5103571;27;20398;-49
2022/04/01 11:42:57;;;;;;;18.83;4.45;;;;;;;20.58;33.18;93114.72;5103995;27;20051;-47
2022/04/01 11:45:26;;;;;;;13.95;3.15;;;;;;;20.50;32.85;93118.28;5103716;27;20043;-47
2022/04/01 11:47:54;;;;;;;30.05;4.32;;;;;;;20.34;33.17;93111.03;5105742;27;20062;-48
2022/04/01 11:50:22;;;;;;;27.17;4.55;;;;;;;20.32;33.07;93117.78;5104574;27;20043;-50
2022/04/01 11:52:56;;;;;;;32.80;7.88;;;;;;;20.39;32.76;93112.69;5102842;27;20066;-48
2022/04/01 11:55:25;;;;;;;47.38;8.88;;;;;;;20.48;32.60;93110.69;5107283;27;20035;-48
2022/04/01 11:57:53;;;;;;;25.83;6.65;;;;;;;20.46;32.13;93112.13;5108343;27;20108;-48
2022/04/01 12:00:22;;;;;;;29.23;3.55;;;;;;;20.41;32.40;93110.47;5108576;27;20048;-49
2022/04/01 12:02:51;;;;;;;49.95;4.40;;;;;;;20.44;32.24;93110.56;5107233;27;20068;-48